createdAt,value
2018-09-20T00:00:05.814Z,18.80
2018-09-20T00:02:34.477Z,18.80
2018-09-20T00:05:06.669Z,18.70
2018-09-20T00:07:35.226Z,18.60
2018-09-20T00:10:07.582Z,18.70
2018-09-20T00:12:36.158Z,18.60
2018-09-20T00:15:10.098Z,18.60
2018-09-20T00:17:38.741Z,18.50
2018-09-20T00:20:12.065Z,18.60
2018-09-20T00:22:40.626Z,18.50
2018-09-20T00:25:15.686Z,18.50
2018-09-20T00:27:44.271Z,18.60
2018-09-20T00:30:16.500Z,18.80
2018-09-20T00:32:45.114Z,18.70
2018-09-20T00:35:17.400Z,18.80
2018-09-20T00:37:45.977Z,18.70
2018-09-20T00:40:14.563Z,18.70
2018-09-20T00:42:46.929Z,18.60
2018-09-20T00:45:15.621Z,18.60
2018-09-20T00:47:47.764Z,18.30
2018-09-20T00:50:16.405Z,18.20
2018-09-20T00:52:48.763Z,18.10
2018-09-20T00:55:17.959Z,18.10
2018-09-20T00:57:49.560Z,17.90
2018-09-20T01:00:18.375Z,17.90
2018-09-20T01:02:50.500Z,17.80
2018-09-20T01:05:19.187Z,17.70
2018-09-20T01:07:51.396Z,17.60
2018-09-20T01:10:19.978Z,17.40
2018-09-20T01:12:53.055Z,17.30
2018-09-20T01:15:21.703Z,17.10
2018-09-20T01:17:54.954Z,17.10
2018-09-20T01:20:23.597Z,17.00
2018-09-20T01:22:55.721Z,16.90
2018-09-20T01:25:27.492Z,16.80
2018-09-20T01:27:59.421Z,16.80
2018-09-20T01:30:28.109Z,16.70
2018-09-20T01:33:00.290Z,16.60
2018-09-20T01:35:28.936Z,16.50
2018-09-20T01:38:02.051Z,16.50
2018-09-20T01:40:30.918Z,16.50
2018-09-20T01:43:03.821Z,16.50
2018-09-20T01:45:32.407Z,16.50
2018-09-20T01:48:04.678Z,16.40
2018-09-20T01:50:33.364Z,16.30
2018-09-20T01:53:05.534Z,16.30
2018-09-20T01:55:34.211Z,16.30
2018-09-20T01:58:06.439Z,16.20
2018-09-20T02:00:35.065Z,16.20
2018-09-20T02:03:07.381Z,16.10
2018-09-20T02:05:35.996Z,16.00
2018-09-20T02:08:09.185Z,16.10
2018-09-20T02:10:37.801Z,16.30
2018-09-20T02:13:10.865Z,16.30
2018-09-20T02:15:39.440Z,16.40
2018-09-20T02:18:11.722Z,16.30
2018-09-20T02:20:42.444Z,16.50
2018-09-20T02:23:14.396Z,16.40
2018-09-20T02:25:47.184Z,16.40
2018-09-20T02:28:19.861Z,16.60
2018-09-20T02:30:48.476Z,16.70
2018-09-20T02:33:20.725Z,16.70
2018-09-20T02:35:49.313Z,16.70
2018-09-20T02:38:21.581Z,16.70
2018-09-20T02:40:50.209Z,16.60
2018-09-20T02:43:22.461Z,16.50
2018-09-20T02:45:51.062Z,16.40
2018-09-20T02:48:19.622Z,16.40
2018-09-20T02:50:52.008Z,16.40
2018-09-20T02:53:20.594Z,16.20
2018-09-20T02:55:52.841Z,16.30
2018-09-20T02:58:21.406Z,16.30
2018-09-20T03:00:53.756Z,16.20
2018-09-20T03:03:22.412Z,16.10
2018-09-20T03:05:54.661Z,16.00
2018-09-20T03:08:23.288Z,16.00
2018-09-20T03:10:56.518Z,15.90
2018-09-20T03:13:25.162Z,15.90
2018-09-20T03:15:57.464Z,15.90
2018-09-20T03:18:26.677Z,15.90
2018-09-20T03:20:59.208Z,15.80
2018-09-20T03:23:27.801Z,15.80
2018-09-20T03:26:03.558Z,15.70
2018-09-20T03:28:32.324Z,15.80
2018-09-20T03:31:04.428Z,15.70
2018-09-20T03:33:33.880Z,15.70
2018-09-20T03:36:05.304Z,15.80
2018-09-20T03:38:33.890Z,15.70
2018-09-20T03:41:07.160Z,15.60
2018-09-20T03:43:36.189Z,15.60
2018-09-20T03:46:08.937Z,15.60
2018-09-20T03:48:37.616Z,15.50
2018-09-20T03:51:09.748Z,15.50
2018-09-20T03:53:52.874Z,15.50
2018-09-20T03:56:26.069Z,15.50
2018-09-20T03:58:54.675Z,15.50
2018-09-20T04:01:27.877Z,15.40
2018-09-20T04:03:56.542Z,15.30
2018-09-20T04:06:28.756Z,15.30
2018-09-20T04:08:57.448Z,15.40
2018-09-20T04:11:29.701Z,15.40
2018-09-20T04:13:58.966Z,15.40
2018-09-20T04:16:30.575Z,15.40
2018-09-20T04:18:59.831Z,15.30
2018-09-20T04:21:36.862Z,15.20
2018-09-20T04:24:06.820Z,15.20
2018-09-20T04:26:43.565Z,15.10
2018-09-20T04:29:12.173Z,15.10
2018-09-20T04:31:45.108Z,15.20
2018-09-20T04:34:13.717Z,15.10
2018-09-20T04:36:45.876Z,15.10
2018-09-20T04:39:14.522Z,15.10
2018-09-20T04:41:46.719Z,15.10
2018-09-20T04:44:15.224Z,15.10
2018-09-20T04:46:43.729Z,15.20
2018-09-20T04:49:15.378Z,15.20
2018-09-20T04:51:43.884Z,15.20
2018-09-20T04:54:12.387Z,15.20
2018-09-20T04:56:48.472Z,15.20
2018-09-20T04:59:17.052Z,15.20
2018-09-20T05:01:49.345Z,15.20
2018-09-20T05:04:17.840Z,15.20
2018-09-20T05:06:46.444Z,15.20
2018-09-20T05:09:18.882Z,15.30
2018-09-20T05:11:47.482Z,15.20
2018-09-20T05:14:19.792Z,15.40
2018-09-20T05:16:48.348Z,15.30
2018-09-20T05:19:20.950Z,15.30
2018-09-20T05:21:49.684Z,15.30
2018-09-20T05:24:21.493Z,15.40
2018-09-20T05:26:55.146Z,15.40
2018-09-20T05:29:26.961Z,15.40
2018-09-20T05:31:55.594Z,15.40
2018-09-20T05:34:27.802Z,15.50
2018-09-20T05:36:56.370Z,15.50
2018-09-20T05:39:28.682Z,15.50
2018-09-20T05:41:57.260Z,15.40
2018-09-20T05:44:29.505Z,15.40
2018-09-20T05:46:58.449Z,15.50
2018-09-20T05:49:30.403Z,15.50
2018-09-20T05:52:00.173Z,15.60
2018-09-20T05:54:36.772Z,15.70
2018-09-20T05:57:05.704Z,15.80
2018-09-20T05:59:37.667Z,15.80
2018-09-20T06:02:06.579Z,15.90
2018-09-20T06:04:38.509Z,16.00
2018-09-20T06:07:07.703Z,16.00
2018-09-20T06:09:42.361Z,16.00
2018-09-20T06:12:10.979Z,16.00
2018-09-20T06:14:43.012Z,16.20
2018-09-20T06:17:11.568Z,16.20
2018-09-20T06:19:43.860Z,16.30
2018-09-20T06:22:12.459Z,16.50
2018-09-20T06:24:40.987Z,16.60
2018-09-20T06:27:16.991Z,16.70
2018-09-20T06:29:46.023Z,16.90
2018-09-20T06:32:17.830Z,17.20
2018-09-20T06:34:46.721Z,17.40
2018-09-20T06:37:18.904Z,17.60
2018-09-20T06:39:47.540Z,17.70
2018-09-20T06:42:19.679Z,17.80
2018-09-20T06:44:48.690Z,18.00
2018-09-20T06:47:20.474Z,18.10
2018-09-20T06:49:49.095Z,18.20
2018-09-20T06:52:22.318Z,18.30
2018-09-20T06:54:51.342Z,18.40
2018-09-20T06:57:24.076Z,18.50
2018-09-20T06:59:52.613Z,18.60
2018-09-20T07:02:24.950Z,18.70
2018-09-20T07:04:53.502Z,18.90
2018-09-20T07:07:22.071Z,19.00
2018-09-20T07:09:53.514Z,19.10
2018-09-20T07:12:22.090Z,19.20
2018-09-20T07:14:55.344Z,19.30
2018-09-20T07:17:23.979Z,19.50
2018-09-20T07:19:57.067Z,19.80
2018-09-20T07:22:25.654Z,20.00
2018-09-20T07:24:58.074Z,20.20
2018-09-20T07:27:29.727Z,20.30
2018-09-20T07:30:01.732Z,20.60
2018-09-20T07:32:30.591Z,21.00
2018-09-20T07:35:02.504Z,21.20
2018-09-20T07:37:31.011Z,21.30
2018-09-20T07:40:04.238Z,21.40
2018-09-20T07:42:32.846Z,21.50
2018-09-20T07:45:06.067Z,21.50
2018-09-20T07:47:34.653Z,21.50
2018-09-20T07:50:07.023Z,21.60
2018-09-20T07:52:35.621Z,21.90
2018-09-20T07:55:07.786Z,22.00
2018-09-20T07:57:36.483Z,22.00
2018-09-20T08:00:08.721Z,22.10
2018-09-20T08:02:37.795Z,22.20
2018-09-20T08:05:13.571Z,22.30
2018-09-20T08:07:42.804Z,22.60
2018-09-20T08:10:14.968Z,22.80
2018-09-20T08:12:43.586Z,23.00
2018-09-20T08:15:15.801Z,23.10
2018-09-20T08:17:44.394Z,23.30
2018-09-20T08:20:16.775Z,23.30
2018-09-20T08:22:45.317Z,23.30
2018-09-20T08:25:17.622Z,23.50
2018-09-20T08:27:52.746Z,23.80
2018-09-20T08:30:24.870Z,23.90
2018-09-20T08:32:53.541Z,24.30
2018-09-20T08:35:25.672Z,24.60
2018-09-20T08:37:54.261Z,24.70
2018-09-20T08:40:22.897Z,24.90
2018-09-20T08:42:56.191Z,25.00
2018-09-20T08:45:24.802Z,25.20
2018-09-20T08:47:57.019Z,25.60
2018-09-20T08:50:25.589Z,25.60
2018-09-20T08:52:57.943Z,25.60
2018-09-20T08:55:26.556Z,25.90
2018-09-20T08:58:00.598Z,26.10
2018-09-20T09:00:29.194Z,26.10
2018-09-20T09:03:02.385Z,26.30
2018-09-20T09:05:30.928Z,26.50
2018-09-20T09:08:06.863Z,26.50
2018-09-20T09:10:35.464Z,26.60
2018-09-20T09:13:06.772Z,26.40
2018-09-20T09:15:35.326Z,26.40
2018-09-20T09:18:07.654Z,26.80
2018-09-20T09:20:36.597Z,27.20
2018-09-20T09:23:08.578Z,27.40
2018-09-20T09:25:37.157Z,27.50
2018-09-20T09:28:13.164Z,27.90
2018-09-20T09:30:41.836Z,28.20
2018-09-20T09:33:13.915Z,28.30
2018-09-20T09:35:42.489Z,28.40
2018-09-20T09:38:11.025Z,27.90
2018-09-20T09:40:42.709Z,28.10
2018-09-20T09:43:11.255Z,28.20
2018-09-20T09:45:44.309Z,28.50
2018-09-20T09:48:12.979Z,28.80
2018-09-20T09:50:46.201Z,28.40
2018-09-20T09:53:15.251Z,28.40
2018-09-20T09:55:47.026Z,28.40
2018-09-20T09:58:15.960Z,28.30
2018-09-20T10:00:48.825Z,28.30
2018-09-20T10:03:17.842Z,28.20
2018-09-20T10:05:50.760Z,28.30
2018-09-20T10:08:19.486Z,28.40
2018-09-20T10:10:51.597Z,28.10
2018-09-20T10:13:20.305Z,28.40
2018-09-20T10:15:53.353Z,28.40
2018-09-20T10:18:21.963Z,28.20
2018-09-20T10:20:55.155Z,28.50
2018-09-20T10:23:23.810Z,28.60
2018-09-20T10:25:56.169Z,28.40
2018-09-20T10:28:39.312Z,28.60
2018-09-20T10:31:12.292Z,29.00
2018-09-20T10:33:40.865Z,29.20
2018-09-20T10:36:13.095Z,29.40
2018-09-20T10:38:41.674Z,29.40
2018-09-20T10:41:10.307Z,29.30
2018-09-20T10:43:41.821Z,29.30
2018-09-20T10:46:10.371Z,29.00
2018-09-20T10:48:42.657Z,29.10
2018-09-20T10:51:11.256Z,29.30
2018-09-20T10:53:44.454Z,29.40
2018-09-20T10:56:13.007Z,29.10
2018-09-20T10:58:46.236Z,29.50
2018-09-20T11:01:14.852Z,30.00
2018-09-20T11:03:47.097Z,29.40
2018-09-20T11:06:15.772Z,29.20
2018-09-20T11:08:47.940Z,29.70
2018-09-20T11:11:16.463Z,29.70
2018-09-20T11:13:45.031Z,29.70
2018-09-20T11:16:17.502Z,30.00
2018-09-20T11:18:46.200Z,30.10
2018-09-20T11:21:19.285Z,30.50
2018-09-20T11:23:48.197Z,30.20
2018-09-20T11:26:20.148Z,30.50
2018-09-20T11:29:03.640Z,30.30
2018-09-20T11:31:36.467Z,30.40
2018-09-20T11:34:05.055Z,30.90
2018-09-20T11:36:38.223Z,30.80
2018-09-20T11:39:08.703Z,30.80
2018-09-20T11:41:40.927Z,30.20
2018-09-20T11:44:09.881Z,30.30
2018-09-20T11:46:45.893Z,30.00
2018-09-20T11:49:14.475Z,30.10
2018-09-20T11:51:47.134Z,30.70
2018-09-20T11:54:16.169Z,30.60
2018-09-20T11:56:48.089Z,31.10
2018-09-20T11:59:16.771Z,31.20
2018-09-20T12:01:53.016Z,31.50
2018-09-20T12:04:21.616Z,32.20
2018-09-20T12:06:54.440Z,31.80
2018-09-20T12:09:23.116Z,31.70
2018-09-20T12:11:55.219Z,31.90
2018-09-20T12:14:23.859Z,32.20
2018-09-20T12:16:56.121Z,32.40
2018-09-20T12:19:24.734Z,32.50
2018-09-20T12:21:57.050Z,32.40
2018-09-20T12:24:25.713Z,32.40
2018-09-20T12:26:57.915Z,31.90
2018-09-20T12:29:30.886Z,32.00
2018-09-20T12:32:03.321Z,32.60
2018-09-20T12:34:31.964Z,32.20
2018-09-20T12:37:04.248Z,32.20
2018-09-20T12:39:33.572Z,32.10
2018-09-20T12:42:05.083Z,32.50
2018-09-20T12:44:33.658Z,32.40
2018-09-20T12:47:05.958Z,31.60
2018-09-20T12:49:34.800Z,31.90
2018-09-20T12:52:06.823Z,31.90
2018-09-20T12:54:35.458Z,31.90
2018-09-20T12:57:07.637Z,31.90
2018-09-20T12:59:36.556Z,31.90
2018-09-20T13:02:09.545Z,32.20
2018-09-20T13:04:38.190Z,32.10
2018-09-20T13:07:11.180Z,31.80
2018-09-20T13:09:39.784Z,32.40
2018-09-20T13:12:08.383Z,32.50
2018-09-20T13:14:39.871Z,32.30
2018-09-20T13:17:08.917Z,32.50
2018-09-20T13:19:44.750Z,32.20
2018-09-20T13:22:13.343Z,31.70
2018-09-20T13:24:45.236Z,32.20
2018-09-20T13:27:13.902Z,31.80
2018-09-20T13:29:49.934Z,31.90
2018-09-20T13:32:18.688Z,31.40
2018-09-20T13:34:50.764Z,31.50
2018-09-20T13:37:19.759Z,31.40
2018-09-20T13:39:52.628Z,31.50
2018-09-20T13:42:21.245Z,31.40
2018-09-20T13:44:54.313Z,31.40
2018-09-20T13:47:22.861Z,30.90
2018-09-20T13:49:55.157Z,30.50
2018-09-20T13:52:23.690Z,30.40
2018-09-20T13:54:52.175Z,30.30
2018-09-20T13:57:24.705Z,30.10
2018-09-20T13:59:53.195Z,30.30
2018-09-20T14:02:21.652Z,30.20
2018-09-20T14:04:54.230Z,29.90
2018-09-20T14:07:22.698Z,30.00
2018-09-20T14:09:51.176Z,29.80
2018-09-20T14:12:22.776Z,29.70
2018-09-20T14:14:51.284Z,29.40
2018-09-20T14:17:23.726Z,29.20
2018-09-20T14:19:52.187Z,29.40
2018-09-20T14:22:25.671Z,29.30
2018-09-20T14:24:54.238Z,29.10
2018-09-20T14:27:27.303Z,29.10
2018-09-20T14:29:59.021Z,29.00
2018-09-20T14:32:30.837Z,29.00
2018-09-20T14:35:06.883Z,29.10
2018-09-20T14:37:39.089Z,28.90
2018-09-20T14:40:07.780Z,28.80
2018-09-20T14:42:39.924Z,28.80
2018-09-20T14:45:08.538Z,28.70
2018-09-20T14:47:40.739Z,28.70
2018-09-20T14:50:09.338Z,28.70
2018-09-20T14:52:42.649Z,28.60
2018-09-20T14:55:11.181Z,28.50
2018-09-20T14:57:46.094Z,28.60
2018-09-20T15:00:14.737Z,28.50
2018-09-20T15:02:47.081Z,28.40
2018-09-20T15:05:15.663Z,28.30
2018-09-20T15:07:47.896Z,28.30
2018-09-20T15:10:16.515Z,28.20
2018-09-20T15:12:48.737Z,28.20
2018-09-20T15:15:17.326Z,28.10
2018-09-20T15:17:50.524Z,28.10
2018-09-20T15:20:19.127Z,28.00
2018-09-20T15:22:51.429Z,27.90
2018-09-20T15:25:21.048Z,27.90
2018-09-20T15:27:53.223Z,27.80
2018-09-20T15:30:24.915Z,27.70
2018-09-20T15:32:56.770Z,27.50
2018-09-20T15:35:25.394Z,27.60
2018-09-20T15:37:58.619Z,27.50
2018-09-20T15:40:27.209Z,27.60
2018-09-20T15:43:00.623Z,27.50
2018-09-20T15:45:29.298Z,27.50
2018-09-20T15:48:01.249Z,27.40
2018-09-20T15:50:29.828Z,27.40
2018-09-20T15:52:58.447Z,27.30
2018-09-20T15:55:30.776Z,27.10
2018-09-20T15:57:59.461Z,27.20
2018-09-20T16:00:32.604Z,27.20
2018-09-20T16:03:01.263Z,27.00
2018-09-20T16:05:34.360Z,26.80
2018-09-20T16:08:03.067Z,26.80
2018-09-20T16:10:35.210Z,26.80
2018-09-20T16:13:03.823Z,26.80
2018-09-20T16:15:36.104Z,26.80
2018-09-20T16:18:05.247Z,26.70
2018-09-20T16:20:37.685Z,26.60
2018-09-20T16:23:06.417Z,26.60
2018-09-20T16:25:38.781Z,26.60
2018-09-20T16:28:14.948Z,26.40
2018-09-20T16:32:03.138Z,26.20
2018-09-20T16:35:43.715Z,26.20
2018-09-20T16:39:24.351Z,26.00
2018-09-20T16:41:55.521Z,25.80
2018-09-20T16:44:27.058Z,25.70
2018-09-20T16:46:55.796Z,25.50
2018-09-20T16:49:27.912Z,25.50
2018-09-20T16:51:57.062Z,25.30
2018-09-20T16:54:28.850Z,25.20
2018-09-20T16:56:57.448Z,25.00
2018-09-20T16:59:30.575Z,25.00
2018-09-20T17:02:00.952Z,24.80
2018-09-20T17:04:32.442Z,24.70
2018-09-20T17:07:01.180Z,24.50
2018-09-20T17:09:33.277Z,24.40
2018-09-20T17:12:02.411Z,24.30
2018-09-20T17:14:35.062Z,24.20
2018-09-20T17:17:03.743Z,24.10
2018-09-20T17:19:37.455Z,23.90
2018-09-20T17:22:06.167Z,23.70
2018-09-20T17:24:38.740Z,23.50
2018-09-20T17:27:07.402Z,23.30
2018-09-20T17:29:40.456Z,23.10
2018-09-20T17:32:12.414Z,23.00
2018-09-20T17:34:47.669Z,22.90
2018-09-20T17:37:17.125Z,22.80
2018-09-20T17:40:42.859Z,22.70
2018-09-20T17:43:14.122Z,22.60
2018-09-20T17:45:47.410Z,22.40
2018-09-20T17:48:16.199Z,22.30
2018-09-20T17:50:48.373Z,22.20
2018-09-20T17:53:17.224Z,22.10
2018-09-20T17:55:49.193Z,22.00
2018-09-20T17:58:20.051Z,21.90
2018-09-20T18:00:51.896Z,21.80
2018-09-20T18:03:20.553Z,21.70
2018-09-20T18:05:53.601Z,21.60
2018-09-20T18:08:22.291Z,21.50
2018-09-20T18:10:55.620Z,21.50
2018-09-20T18:13:24.439Z,21.40
2018-09-20T18:15:56.345Z,21.30
2018-09-20T18:18:25.009Z,21.30
2018-09-20T18:20:57.261Z,21.30
2018-09-20T18:23:25.925Z,21.10
2018-09-20T18:25:58.105Z,21.10
2018-09-20T18:28:26.756Z,21.00
2018-09-20T18:30:58.906Z,20.90
2018-09-20T18:33:31.710Z,20.80
2018-09-20T18:36:04.399Z,20.70
2018-09-20T18:38:33.102Z,20.70
2018-09-20T18:41:05.256Z,20.70
2018-09-20T18:43:33.983Z,20.60
2018-09-20T18:46:06.089Z,20.50
2018-09-20T18:48:34.699Z,20.40
2018-09-20T18:51:06.942Z,20.30
2018-09-20T18:53:43.716Z,20.20
2018-09-20T18:56:16.015Z,20.20
2018-09-20T18:58:44.810Z,20.10
2018-09-20T19:01:17.002Z,20.10
2018-09-20T19:03:45.961Z,20.00
2018-09-20T19:06:18.844Z,19.90
2018-09-20T19:08:47.625Z,19.90
2018-09-20T19:11:20.462Z,19.80
2018-09-20T19:13:49.230Z,19.70
2018-09-20T19:16:21.365Z,19.70
2018-09-20T19:18:50.089Z,19.70
2018-09-20T19:21:22.264Z,19.60
2018-09-20T19:23:51.127Z,19.60
2018-09-20T19:26:23.093Z,19.50
2018-09-20T19:28:52.724Z,19.50
2018-09-20T19:31:24.913Z,19.40
2018-09-20T19:33:57.442Z,19.40
2018-09-20T19:36:30.328Z,19.30
2018-09-20T19:38:59.635Z,19.30
2018-09-20T19:41:33.055Z,19.30
2018-09-20T19:44:02.283Z,19.20
2018-09-20T19:46:35.835Z,19.20
2018-09-20T19:49:05.169Z,19.10
2018-09-20T19:51:37.637Z,19.00
2018-09-20T19:54:06.309Z,19.00
2018-09-20T19:56:39.343Z,18.90
2018-09-20T19:59:08.192Z,18.80
2018-09-20T20:01:40.122Z,18.70
2018-09-20T20:04:08.919Z,18.60
2018-09-20T20:06:40.986Z,18.60
2018-09-20T20:09:11.801Z,18.40
2018-09-20T20:11:45.529Z,18.40
2018-09-20T20:14:14.295Z,18.30
2018-09-20T20:16:46.410Z,18.20
2018-09-20T20:19:15.109Z,18.10
2018-09-20T20:21:47.264Z,18.10
2018-09-20T20:24:16.472Z,18.00
2018-09-20T20:26:48.123Z,17.90
2018-09-20T20:29:16.738Z,17.90
2018-09-20T20:31:48.977Z,17.80
2018-09-20T20:34:21.814Z,17.80
2018-09-20T20:36:53.495Z,17.70
2018-09-20T20:39:22.278Z,17.70
2018-09-20T20:41:55.326Z,17.60
2018-09-20T20:44:24.311Z,17.50
2018-09-20T20:46:56.166Z,17.40
2018-09-20T20:49:24.967Z,17.40
2018-09-20T20:51:57.024Z,17.30
2018-09-20T20:54:25.643Z,17.20
2018-09-20T20:56:57.879Z,17.20
2018-09-20T20:59:26.663Z,17.20
2018-09-20T21:01:59.697Z,17.10
2018-09-20T21:04:28.410Z,17.10
2018-09-20T21:07:01.582Z,17.00
2018-09-20T21:09:30.242Z,17.00
2018-09-20T21:12:06.124Z,17.00
2018-09-20T21:14:42.553Z,16.90
2018-09-20T21:17:11.162Z,16.80
2018-09-20T21:19:47.288Z,16.80
2018-09-20T21:22:16.796Z,16.70
2018-09-20T21:24:49.100Z,16.60
2018-09-20T21:27:17.914Z,16.60
2018-09-20T21:29:53.203Z,16.50
2018-09-20T21:32:21.869Z,16.50
2018-09-20T21:34:58.077Z,16.40
2018-09-20T21:37:27.583Z,16.40
2018-09-20T21:40:00.759Z,16.30
2018-09-20T21:42:29.375Z,16.30
2018-09-20T21:45:06.244Z,16.30
2018-09-20T21:47:34.820Z,16.20
2018-09-20T21:50:07.105Z,16.20
2018-09-20T21:52:35.669Z,16.00
2018-09-20T21:55:08.809Z,16.10
2018-09-20T21:57:37.397Z,16.00
2018-09-20T22:00:10.590Z,16.00
2018-09-20T22:02:44.554Z,15.90
2018-09-20T22:05:16.030Z,15.90
2018-09-20T22:07:44.816Z,15.90
2018-09-20T22:10:17.952Z,15.90
2018-09-20T22:12:46.644Z,15.90
2018-09-20T22:15:24.133Z,15.80
2018-09-20T22:17:53.172Z,15.80
2018-09-20T22:20:26.904Z,15.70
2018-09-20T22:22:57.156Z,15.70
2018-09-20T22:25:29.482Z,15.70
2018-09-20T22:27:58.064Z,15.60
2018-09-20T22:30:26.673Z,15.60
2018-09-20T22:32:59.009Z,15.60
2018-09-20T22:35:30.869Z,15.50
2018-09-20T22:38:03.674Z,15.40
2018-09-20T22:40:32.317Z,15.40
2018-09-20T22:43:04.441Z,15.40
2018-09-20T22:45:33.051Z,15.30
2018-09-20T22:48:05.320Z,15.20
2018-09-20T22:50:33.978Z,15.20
2018-09-20T22:53:06.179Z,15.20
2018-09-20T22:55:34.893Z,15.20
2018-09-20T22:58:07.138Z,15.10
2018-09-20T23:00:35.741Z,15.20
2018-09-20T23:03:08.821Z,15.10
2018-09-20T23:05:37.454Z,15.10
2018-09-20T23:08:10.586Z,15.10
2018-09-20T23:10:39.180Z,15.10
2018-09-20T23:13:11.569Z,15.20
2018-09-20T23:15:40.226Z,15.10
2018-09-20T23:18:12.342Z,15.00
2018-09-20T23:20:41.031Z,15.00
2018-09-20T23:23:13.268Z,15.00
2018-09-20T23:25:41.854Z,14.90
2018-09-20T23:28:14.103Z,14.80
2018-09-20T23:30:43.459Z,14.80
2018-09-20T23:33:15.005Z,14.80
2018-09-20T23:35:46.875Z,14.60
2018-09-20T23:38:18.641Z,14.60
2018-09-20T23:40:47.399Z,14.50
2018-09-20T23:43:19.495Z,14.50
2018-09-20T23:45:48.180Z,14.50
2018-09-20T23:48:20.393Z,14.40
2018-09-20T23:50:49.563Z,14.40
2018-09-20T23:53:21.211Z,14.40
2018-09-20T23:55:49.878Z,14.40
2018-09-20T23:58:22.130Z,14.40
